Time;durP1;ratioP1;P1;durP2;ratioP2;P2;SDS_P1;SDS_P2;PMS_P1;PMS_P2;Temp;Humidity;BMP_temperature;BMP_pressure;BME280_temperature;BME280_humidity;BME280_pressure;Samples;Min_cycle;Max_cycle;Signal;HPM_P1;HPM_P2
2021/04/27 00:00:41;;;;;;;3.17;1.20;;;9.00;53.20;;;;;;5056727;28;20082;-72
2021/04/27 00:03:07;;;;;;;4.33;1.20;;;9.00;53.50;;;;;;5074501;28;20127;-72
2021/04/27 00:05:33;;;;;;;6.33;1.57;;;8.90;53.60;;;;;;5074671;28;20071;-72
2021/04/27 00:07:59;;;;;;;5.93;1.10;;;8.90;53.70;;;;;;5074602;28;20118;-72
2021/04/27 00:10:26;;;;;;;4.87;1.20;;;8.90;53.80;;;;;;5074393;28;20157;-72
2021/04/27 00:12:52;;;;;;;6.30;1.87;;;8.90;53.90;;;;;;5073961;28;20472;-72
2021/04/27 00:15:24;;;;;;;4.27;1.33;;;8.80;54.10;;;;;;5074388;28;20157;-72
2021/04/27 00:17:50;;;;;;;3.73;1.20;;;8.80;54.10;;;;;;5056022;28;20428;-71
2021/04/27 00:20:17;;;;;;;4.23;1.40;;;8.80;54.20;;;;;;5073974;28;20311;-72
2021/04/27 00:22:43;;;;;;;4.93;1.37;;;8.80;54.40;;;;;;5056525;28;20029;-72
2021/04/27 00:25:09;;;;;;;9.20;1.60;;;8.70;54.40;;;;;;5074119;28;20029;-72
2021/04/27 00:27:35;;;;;;;2.73;1.20;;;8.70;54.60;;;;;;5074118;28;20058;-71
2021/04/27 00:30:02;;;;;;;8.10;1.90;;;8.60;55.10;;;;;;5074070;28;20025;-72
2021/04/27 00:32:28;;;;;;;3.30;1.20;;;8.50;55.10;;;;;;5073982;28;20035;-73
2021/04/27 00:34:53;;;;;;;4.80;1.27;;;8.50;55.20;;;;;;5073828;28;20033;-71
2021/04/27 00:37:19;;;;;;;4.40;1.40;;;8.60;55.40;;;;;;5074096;28;20109;-72
2021/04/27 00:39:45;;;;;;;4.50;1.37;;;8.60;55.40;;;;;;5073554;28;20056;-72
2021/04/27 00:42:10;;;;;;;4.97;1.80;;;8.40;55.60;;;;;;5055896;28;20029;-72
2021/04/27 00:44:37;;;;;;;5.87;1.60;;;8.40;55.80;;;;;;5074130;28;20360;-72
2021/04/27 00:47:02;;;;;;;4.47;2.17;;;8.30;56.00;;;;;;5073636;28;20028;-71
2021/04/27 00:49:29;;;;;;;4.37;1.37;;;8.30;56.20;;;;;;5073701;28;20032;-71
2021/04/27 00:51:55;;;;;;;7.30;1.90;;;8.20;56.20;;;;;;5039431;28;20054;-73
2021/04/27 00:54:21;;;;;;;3.80;1.57;;;8.20;56.30;;;;;;5073591;28;20167;-72
2021/04/27 00:56:46;;;;;;;6.20;1.83;;;8.20;56.50;;;;;;5073716;28;20226;-72
2021/04/27 00:59:12;;;;;;;4.83;1.57;;;8.10;56.60;;;;;;5074039;28;20473;-72
2021/04/27 01:01:37;;;;;;;4.33;2.03;;;8.20;57.30;;;;;;5055401;28;20054;-71
2021/04/27 01:04:04;;;;;;;4.87;1.40;;;8.10;56.80;;;;;;5055402;28;20031;-72
2021/04/27 01:06:29;;;;;;;5.77;2.03;;;8.10;56.90;;;;;;5073569;28;20468;-74
2021/04/27 01:09:13;;;;;;;6.10;2.13;;;8.00;56.90;;;;;;5073427;28;20028;-78
2021/04/27 01:12:02;;;;;;;4.50;1.67;;;8.00;57.10;;;;;;5073102;28;20032;-72
2021/04/27 01:14:37;;;;;;;6.10;2.03;;;7.90;57.40;;;;;;5039443;28;20024;-72
2021/04/27 01:17:09;;;;;;;4.17;1.80;;;7.90;57.30;;;;;;5073415;28;20032;-72
2021/04/27 01:19:42;;;;;;;5.10;1.60;;;7.90;57.30;;;;;;5073536;28;20364;-71
2021/04/27 01:22:12;;;;;;;11.03;1.93;;;7.80;57.40;;;;;;5073326;28;20386;-71
2021/04/27 01:24:50;;;;;;;4.57;1.97;;;7.90;57.70;;;;;;5055392;28;20025;-72
2021/04/27 01:27:17;;;;;;;4.60;1.50;;;7.70;57.70;;;;;;5073086;28;20472;-72
2021/04/27 01:29:44;;;;;;;3.73;1.80;;;7.80;57.90;;;;;;5073246;28;20037;-72
2021/04/27 01:32:10;;;;;;;4.10;1.83;;;7.70;57.90;;;;;;5055621;28;20082;-72
2021/04/27 01:34:39;;;;;;;5.77;1.87;;;7.80;58.10;;;;;;5055306;28;20032;-72
2021/04/27 01:37:06;;;;;;;6.23;2.20;;;7.70;58.20;;;;;;5073149;28;20029;-71
2021/04/27 01:39:32;;;;;;;4.17;1.73;;;7.70;58.30;;;;;;5072989;28;20052;-72
2021/04/27 01:42:04;;;;;;;7.33;2.67;;;7.60;58.40;;;;;;5072835;28;20059;-71
2021/04/27 01:44:31;;;;;;;5.40;1.97;;;7.60;58.30;;;;;;5073038;28;20039;-71
2021/04/27 01:46:58;;;;;;;6.07;2.03;;;7.60;58.30;;;;;;5042219;28;20040;-72
2021/04/27 01:49:24;;;;;;;5.37;1.97;;;7.60;58.40;;;;;;5077439;28;20111;-72
2021/04/27 01:51:54;;;;;;;5.93;2.10;;;7.60;58.50;;;;;;5077290;28;20037;-72
2021/04/27 01:54:24;;;;;;;7.53;2.60;;;7.60;58.60;;;;;;5077056;28;20415;-71
2021/04/27 01:56:51;;;;;;;5.17;2.00;;;7.50;58.60;;;;;;5076755;28;20036;-72
2021/04/27 01:59:16;;;;;;;4.73;1.93;;;7.50;58.70;;;;;;5077022;28;20052;-72
2021/04/27 02:01:42;;;;;;;5.77;2.20;;;7.40;59.50;;;;;;5077309;28;20060;-72
2021/04/27 02:04:08;;;;;;;5.37;1.63;;;7.50;59.10;;;;;;5059140;28;20033;-72
2021/04/27 02:06:33;;;;;;;5.03;2.37;;;7.40;59.10;;;;;;5058736;28;20032;-72
2021/04/27 02:09:07;;;;;;;5.13;2.00;;;7.40;59.10;;;;;;5076796;28;20036;-72
2021/04/27 02:11:39;;;;;;;6.30;1.80;;;7.30;59.20;;;;;;5076600;28;20063;-72
2021/04/27 02:14:07;;;;;;;9.70;2.37;;;7.30;59.40;;;;;;5076624;28;20029;-72
2021/04/27 02:16:39;;;;;;;5.93;2.17;;;7.30;59.40;;;;;;5076797;28;20165;-72
2021/04/27 02:19:06;;;;;;;4.03;1.87;;;7.30;59.60;;;;;;5076355;28;20025;-71
2021/04/27 02:21:34;;;;;;;4.60;1.90;;;7.40;59.80;;;;;;5058769;28;20089;-72
2021/04/27 02:24:00;;;;;;;9.67;2.07;;;7.10;59.70;;;;;;5076274;28;20033;-72
2021/04/27 02:26:29;;;;;;;6.27;2.23;;;7.20;59.70;;;;;;5058399;28;20416;-71
2021/04/27 02:28:55;;;;;;;7.23;2.90;;;7.10;59.80;;;;;;5076199;28;20060;-71
2021/04/27 02:31:21;;;;;;;6.80;2.63;;;7.10;60.00;;;;;;5076352;28;20434;-72
2021/04/27 02:33:47;;;;;;;4.20;2.00;;;7.10;60.10;;;;;;5076258;28;20036;-72
2021/04/27 02:36:13;;;;;;;5.33;2.23;;;7.20;60.20;;;;;;5076232;28;20033;-72
2021/04/27 02:38:41;;;;;;;7.33;2.57;;;7.10;60.20;;;;;;5076060;28;20033;-71
2021/04/27 02:41:06;;;;;;;6.73;2.53;;;7.10;60.40;;;;;;5076163;28;20028;-72
2021/04/27 02:43:32;;;;;;;4.10;1.80;;;7.00;60.70;;;;;;5076292;28;20031;-72
2021/04/27 02:45:58;;;;;;;4.17;2.30;;;7.00;61.00;;;;;;5075687;28;20024;-72
2021/04/27 02:48:26;;;;;;;7.53;2.10;;;6.90;61.10;;;;;;5075580;28;20380;-72
2021/04/27 02:50:55;;;;;;;8.70;2.97;;;6.90;61.30;;;;;;5075551;28;20058;-71
2021/04/27 02:53:21;;;;;;;5.87;2.33;;;6.90;61.40;;;;;;5075564;28;20384;-72
2021/04/27 02:55:48;;;;;;;6.13;2.63;;;6.90;61.40;;;;;;5057816;28;20032;-71
2021/04/27 02:58:15;;;;;;;4.63;2.23;;;6.80;61.50;;;;;;5057787;28;20050;-74
2021/04/27 03:00:42;;;;;;;4.60;2.17;;;6.80;61.50;;;;;;5075474;28;20567;-72
2021/04/27 03:03:08;;;;;;;7.17;2.30;;;6.80;61.60;;;;;;5075468;28;20052;-72
2021/04/27 03:05:34;;;;;;;7.00;2.40;;;6.90;61.60;;;;;;5075465;28;20129;-72
2021/04/27 03:07:59;;;;;;;8.47;3.13;;;6.80;61.60;;;;;;5075541;28;20032;-71
2021/04/27 03:10:25;;;;;;;5.97;2.53;;;6.80;61.60;;;;;;5057432;28;20029;-72
2021/04/27 03:12:51;;;;;;;7.37;2.50;;;6.60;61.70;;;;;;5075138;28;20400;-71
2021/04/27 03:15:17;;;;;;;7.63;2.33;;;6.80;61.90;;;;;;5057357;28;20084;-72
2021/04/27 03:17:42;;;;;;;6.53;2.20;;;6.70;61.90;;;;;;5075460;28;20040;-72
2021/04/27 03:20:12;;;;;;;6.03;2.60;;;6.70;62.00;;;;;;5075520;28;20024;-72
2021/04/27 03:22:38;;;;;;;5.00;2.23;;;6.70;62.00;;;;;;5075096;28;20039;-71
2021/04/27 03:25:05;;;;;;;6.23;2.73;;;6.80;62.10;;;;;;5057656;28;20094;-71
2021/04/27 03:27:31;;;;;;;5.30;2.33;;;6.70;62.20;;;;;;5056953;28;20024;-73
2021/04/27 03:29:57;;;;;;;5.30;2.37;;;6.70;62.20;;;;;;5074893;28;20035;-72
2021/04/27 03:32:23;;;;;;;7.73;2.73;;;6.70;62.20;;;;;;5074783;28;20033;-71
2021/04/27 03:34:49;;;;;;;5.80;2.57;;;6.60;62.20;;;;;;5075125;28;20353;-72
2021/04/27 03:37:14;;;;;;;4.77;2.40;;;6.60;62.20;;;;;;5074873;28;20400;-71
2021/04/27 03:39:40;;;;;;;6.47;2.97;;;6.50;62.20;;;;;;5057233;28;20036;-72
2021/04/27 03:42:07;;;;;;;6.43;2.60;;;6.60;62.30;;;;;;5056968;28;20032;-72
2021/04/27 03:44:33;;;;;;;7.77;2.80;;;6.60;62.40;;;;;;5057139;28;20086;-71
2021/04/27 03:46:59;;;;;;;7.07;2.93;;;6.60;62.50;;;;;;5075264;28;20112;-72
2021/04/27 03:49:24;;;;;;;7.70;3.03;;;6.50;62.50;;;;;;5074648;28;20424;-72
2021/04/27 03:51:50;;;;;;;6.90;3.00;;;6.50;62.50;;;;;;5074449;28;20039;-72
2021/04/27 03:54:16;;;;;;;4.93;2.63;;;6.50;62.50;;;;;;5056700;28;20074;-72
2021/04/27 03:56:42;;;;;;;8.20;2.87;;;6.50;62.60;;;;;;5056946;28;20033;-71
2021/04/27 03:59:08;;;;;;;6.47;2.97;;;6.50;62.70;;;;;;5074388;28;20383;-72
2021/04/27 04:01:34;;;;;;;6.47;2.87;;;6.50;62.80;;;;;;5072483;28;20506;-73
2021/04/27 04:04:00;;;;;;;5.37;2.57;;;6.50;62.90;;;;;;5074225;28;20029;-72
2021/04/27 04:06:26;;;;;;;6.27;2.57;;;6.40;62.90;;;;;;5074008;28;20359;-72
2021/04/27 04:08:52;;;;;;;6.53;2.47;;;6.50;63.00;;;;;;5074269;28;20443;-71
2021/04/27 04:11:18;;;;;;;7.97;3.33;;;6.30;63.00;;;;;;5074261;28;20045;-72
2021/04/27 04:13:44;;;;;;;7.40;3.20;;;6.40;63.00;;;;;;5056393;28;20345;-72
2021/04/27 04:16:09;;;;;;;5.73;2.77;;;6.50;63.10;;;;;;5055501;28;20032;-72
2021/04/27 04:18:35;;;;;;;6.23;2.50;;;6.30;63.10;;;;;;5073974;28;20040;-72
2021/04/27 04:21:00;;;;;;;4.87;2.67;;;6.30;63.20;;;;;;5074412;28;20392;-72
2021/04/27 04:23:28;;;;;;;6.17;2.60;;;6.30;63.30;;;;;;5056043;28;20119;-72
2021/04/27 04:25:54;;;;;;;7.03;3.43;;;6.30;63.20;;;;;;5073919;28;20497;-72
2021/04/27 04:28:20;;;;;;;5.67;2.60;;;6.30;63.20;;;;;;5056179;28;20068;-71
2021/04/27 04:30:45;;;;;;;10.20;3.20;;;6.30;63.20;;;;;;5074090;28;20033;-71
2021/04/27 04:33:11;;;;;;;5.47;2.37;;;6.30;63.30;;;;;;5039436;28;20082;-72
2021/04/27 04:35:37;;;;;;;7.90;2.97;;;6.30;63.40;;;;;;5065386;28;20108;-71
2021/04/27 04:38:03;;;;;;;8.33;2.73;;;6.30;63.40;;;;;;5053606;28;20035;-72
2021/04/27 04:40:29;;;;;;;6.57;2.53;;;6.30;63.50;;;;;;5053236;28;20025;-71
2021/04/27 04:42:55;;;;;;;6.80;2.77;;;6.40;63.50;;;;;;5053830;28;20067;-71
2021/04/27 04:45:21;;;;;;;7.30;3.03;;;6.30;63.50;;;;;;5053925;28;20029;-72
2021/04/27 04:47:47;;;;;;;6.70;3.20;;;6.30;63.50;;;;;;5019640;28;20377;-71
2021/04/27 04:50:15;;;;;;;7.10;3.07;;;6.30;63.60;;;;;;5053114;28;20064;-71
2021/04/27 04:52:41;;;;;;;7.13;3.33;;;6.30;63.60;;;;;;5053763;28;20032;-71
2021/04/27 04:55:08;;;;;;;7.90;3.17;;;6.30;63.50;;;;;;5036163;28;20048;-72
2021/04/27 04:57:34;;;;;;;7.63;3.37;;;6.30;63.60;;;;;;5053888;28;20036;-71
2021/04/27 05:00:00;;;;;;;8.27;3.40;;;6.40;63.70;;;;;;5035837;28;20389;-71
2021/04/27 05:02:27;;;;;;;5.87;2.87;;;6.40;63.70;;;;;;5035793;28;20033;-78
2021/04/27 05:04:52;;;;;;;7.03;3.23;;;6.40;63.70;;;;;;5036194;28;20380;-78
2021/04/27 05:07:20;;;;;;;5.90;3.10;;;6.40;63.70;;;;;;5035562;28;20029;-78
2021/04/27 05:09:46;;;;;;;7.13;3.23;;;6.40;63.60;;;;;;5053357;28;20029;-78
2021/04/27 05:12:12;;;;;;;6.20;3.13;;;6.40;63.60;;;;;;5053122;28;20064;-78
2021/04/27 05:14:40;;;;;;;6.53;3.70;;;6.50;63.70;;;;;;5035551;28;20070;-78
2021/04/27 05:17:07;;;;;;;9.03;3.40;;;6.50;63.60;;;;;;5035351;28;20443;-79
2021/04/27 05:19:33;;;;;;;7.83;3.40;;;6.60;63.50;;;;;;5034791;28;20025;-78
2021/04/27 05:22:00;;;;;;;5.87;3.07;;;6.60;63.50;;;;;;5035302;28;20036;-80
2021/04/27 05:24:26;;;;;;;7.33;3.53;;;6.70;63.50;;;;;;5053183;28;20029;-78
2021/04/27 05:26:52;;;;;;;7.27;3.17;;;6.70;63.40;;;;;;5035564;28;20424;-71
2021/04/27 05:29:18;;;;;;;5.23;2.63;;;6.70;63.30;;;;;;5019046;28;20060;-72
2021/04/27 05:31:44;;;;;;;6.20;3.07;;;6.80;63.30;;;;;;5053222;28;20039;-72
2021/04/27 05:34:09;;;;;;;7.93;3.30;;;6.70;63.20;;;;;;5053150;28;20064;-72
2021/04/27 05:36:35;;;;;;;8.10;3.47;;;6.90;63.20;;;;;;5053444;28;20021;-72
2021/04/27 05:39:01;;;;;;;6.30;3.37;;;6.90;63.10;;;;;;5053252;28;20165;-72
2021/04/27 05:41:26;;;;;;;7.27;3.00;;;6.90;62.90;;;;;;5053251;28;20029;-72
2021/04/27 05:43:52;;;;;;;6.30;3.20;;;7.00;62.90;;;;;;5052979;28;20060;-72
2021/04/27 05:46:18;;;;;;;7.63;3.83;;;7.00;62.80;;;;;;5053088;28;20029;-72
2021/04/27 05:48:43;;;;;;;6.20;3.20;;;7.20;62.90;;;;;;5052832;28;20464;-72
2021/04/27 05:51:09;;;;;;;8.73;3.20;;;7.10;63.30;;;;;;5052922;28;20037;-72
2021/04/27 05:53:35;;;;;;;6.47;3.07;;;7.10;62.50;;;;;;5052810;28;20128;-72
2021/04/27 05:56:00;;;;;;;6.23;2.83;;;7.30;62.60;;;;;;5052562;28;20032;-72
2021/04/27 05:58:26;;;;;;;6.83;3.47;;;7.20;62.50;;;;;;5051753;28;20163;-72
2021/04/27 06:00:52;;;;;;;9.30;3.47;;;7.30;62.30;;;;;;5052908;28;20361;-72
2021/04/27 06:03:17;;;;;;;5.93;3.27;;;7.40;62.30;;;;;;5051440;28;20045;-72
2021/04/27 06:05:43;;;;;;;8.03;3.43;;;7.30;62.10;;;;;;5053034;28;20124;-72
2021/04/27 06:08:08;;;;;;;7.20;3.10;;;7.40;62.10;;;;;;5053039;28;20032;-72
2021/04/27 06:10:34;;;;;;;8.53;3.23;;;7.50;61.90;;;;;;5051536;28;20491;-72
2021/04/27 06:13:00;;;;;;;7.27;3.07;;;7.50;61.80;;;;;;5052172;28;20049;-72
2021/04/27 06:15:25;;;;;;;6.33;3.20;;;7.50;61.70;;;;;;5052841;28;20033;-72
2021/04/27 06:17:51;;;;;;;6.97;3.50;;;7.60;61.60;;;;;;5018857;28;20061;-72
2021/04/27 06:20:17;;;;;;;5.97;2.97;;;7.60;61.40;;;;;;5052954;28;20025;-72
2021/04/27 06:22:43;;;;;;;5.90;2.87;;;7.70;61.20;;;;;;5052704;28;20035;-71
2021/04/27 06:25:09;;;;;;;8.03;3.03;;;7.80;61.10;;;;;;5034751;28;20540;-72
2021/04/27 06:27:36;;;;;;;6.33;3.17;;;7.80;61.10;;;;;;5052539;28;20021;-72
2021/04/27 06:30:04;;;;;;;6.90;2.97;;;7.90;60.60;;;;;;5052741;28;20033;-72
2021/04/27 06:32:30;;;;;;;6.40;2.97;;;7.90;60.30;;;;;;5055557;28;20025;-72
2021/04/27 06:34:56;;;;;;;6.17;3.03;;;7.90;60.10;;;;;;5056101;28;20104;-72
2021/04/27 06:37:22;;;;;;;9.53;3.00;;;8.10;59.90;;;;;;5038107;28;20036;-72
2021/04/27 06:39:47;;;;;;;5.33;2.80;;;8.00;59.60;;;;;;5056103;28;20049;-72
2021/04/27 06:42:14;;;;;;;6.47;2.60;;;8.00;59.40;;;;;;5056084;28;20033;-72
2021/04/27 06:44:40;;;;;;;5.87;2.70;;;8.10;59.20;;;;;;5038001;28;20115;-72
2021/04/27 06:47:06;;;;;;;5.80;3.17;;;8.20;59.10;;;;;;5055846;28;20584;-73
2021/04/27 06:49:33;;;;;;;5.63;2.80;;;8.20;58.80;;;;;;5056146;28;20025;-72
2021/04/27 06:51:59;;;;;;;5.53;2.60;;;8.20;58.80;;;;;;5055440;28;20025;-72
2021/04/27 06:54:24;;;;;;;7.37;3.07;;;8.20;58.50;;;;;;5056031;28;20029;-72
2021/04/27 06:56:50;;;;;;;5.43;2.40;;;8.20;58.30;;;;;;5055801;28;20420;-79
2021/04/27 06:59:19;;;;;;;6.63;2.73;;;8.40;58.30;;;;;;5055631;28;20033;-79
2021/04/27 07:01:45;;;;;;;6.10;2.50;;;8.40;58.10;;;;;;5038643;28;20108;-79
2021/04/27 07:04:11;;;;;;;5.00;2.53;;;8.50;58.00;;;;;;5037853;28;20025;-79
2021/04/27 07:06:37;;;;;;;5.17;2.70;;;8.60;57.80;;;;;;5037776;28;20056;-79
2021/04/27 07:09:03;;;;;;;8.27;2.90;;;8.70;57.80;;;;;;5037936;28;20370;-79
2021/04/27 07:11:30;;;;;;;4.57;2.43;;;8.70;57.60;;;;;;5037358;28;20060;-80
2021/04/27 07:13:56;;;;;;;6.47;3.00;;;8.80;57.40;;;;;;5005234;28;20523;-80
2021/04/27 07:16:22;;;;;;;5.83;2.50;;;9.00;57.20;;;;;;5037641;28;20064;-79
2021/04/27 07:18:47;;;;;;;5.03;2.23;;;9.00;57.10;;;;;;5053960;28;20021;-80
2021/04/27 07:21:14;;;;;;;6.57;2.80;;;9.00;56.90;;;;;;5037414;28;20471;-80
2021/04/27 07:23:40;;;;;;;5.53;2.90;;;9.10;56.80;;;;;;5037208;28;20070;-79
2021/04/27 07:26:07;;;;;;;6.33;2.60;;;9.20;56.70;;;;;;5055044;28;20059;-78
2021/04/27 07:28:33;;;;;;;7.40;2.83;;;9.30;56.80;;;;;;5037234;28;20043;-80
2021/04/27 07:30:59;;;;;;;5.80;2.67;;;9.40;56.60;;;;;;5055254;28;20381;-82
2021/04/27 07:33:25;;;;;;;6.23;2.80;;;9.50;56.40;;;;;;5037077;28;20036;-82
2021/04/27 07:35:50;;;;;;;6.83;2.47;;;9.60;56.20;;;;;;5053845;28;20033;-80
2021/04/27 07:38:16;;;;;;;6.00;2.70;;;9.60;55.90;;;;;;5020518;28;20075;-80
2021/04/27 07:40:42;;;;;;;7.17;2.73;;;9.70;55.80;;;;;;5054905;28;20419;-80
2021/04/27 07:43:07;;;;;;;3.83;2.33;;;9.70;55.60;;;;;;5053944;28;20044;-78
2021/04/27 07:45:34;;;;;;;6.60;2.60;;;9.80;55.40;;;;;;5054957;28;20032;-79
2021/04/27 07:48:05;;;;;;;6.23;3.10;;;9.80;55.30;;;;;;5037226;28;20029;-79
2021/04/27 07:50:32;;;;;;;5.73;3.13;;;9.80;55.30;;;;;;5036935;28;20025;-78
2021/04/27 07:52:57;;;;;;;6.13;2.87;;;9.80;55.20;;;;;;5054855;28;20049;-78
2021/04/27 07:55:23;;;;;;;7.37;3.03;;;9.90;55.20;;;;;;5037319;28;20440;-79
2021/04/27 07:57:50;;;;;;;7.10;3.07;;;10.00;55.20;;;;;;5036701;28;20477;-78
2021/04/27 08:00:17;;;;;;;6.93;3.43;;;10.00;55.10;;;;;;5020165;28;20050;-79
2021/04/27 08:02:43;;;;;;;5.77;3.27;;;10.10;55.00;;;;;;5054307;28;20511;-80
2021/04/27 08:05:10;;;;;;;8.10;2.97;;;10.20;55.00;;;;;;5054336;28;20029;-79
2021/04/27 08:07:36;;;;;;;6.50;2.90;;;10.20;54.80;;;;;;5054342;28;20021;-78
2021/04/27 08:10:05;;;;;;;6.47;3.23;;;10.30;54.70;;;;;;5054516;28;20053;-79
2021/04/27 08:12:30;;;;;;;7.77;2.80;;;10.30;54.60;;;;;;5053992;28;20381;-79
2021/04/27 08:14:56;;;;;;;4.70;2.40;;;10.30;54.40;;;;;;5054096;28;20040;-80
2021/04/27 08:17:22;;;;;;;6.57;2.67;;;10.40;54.10;;;;;;5054106;28;20025;-72
2021/04/27 08:19:49;;;;;;;5.30;2.33;;;10.40;53.60;;;;;;5020099;28;20147;-72
2021/04/27 08:22:15;;;;;;;7.03;3.07;;;10.60;53.10;;;;;;5054251;28;20029;-72
2021/04/27 08:24:45;;;;;;;4.57;2.17;;;10.60;52.80;;;;;;5054401;28;20055;-73
2021/04/27 08:27:15;;;;;;;3.97;1.73;;;10.70;52.30;;;;;;5067449;28;20032;-73
2021/04/27 08:29:41;;;;;;;5.10;2.00;;;10.70;52.00;;;;;;5053710;28;20052;-72
2021/04/27 08:32:08;;;;;;;4.07;2.10;;;10.90;51.50;;;;;;5053253;28;20028;-73
2021/04/27 08:34:34;;;;;;;5.23;2.03;;;10.80;51.20;;;;;;5019564;28;20029;-73
2021/04/27 08:37:00;;;;;;;5.87;2.03;;;10.90;51.60;;;;;;5053691;28;20527;-73
2021/04/27 08:39:26;;;;;;;5.23;2.00;;;11.00;50.70;;;;;;5035744;28;20025;-72
2021/04/27 08:41:53;;;;;;;5.17;2.20;;;11.10;50.30;;;;;;5035731;28;20476;-79
2021/04/27 08:44:19;;;;;;;4.60;2.00;;;11.10;50.00;;;;;;5053608;28;20083;-79
2021/04/27 08:46:44;;;;;;;6.30;1.60;;;11.20;49.70;;;;;;5035626;28;20025;-79
2021/04/27 08:49:10;;;;;;;4.93;2.43;;;11.20;49.50;;;;;;5053565;28;20025;-78
2021/04/27 08:51:36;;;;;;;5.57;2.37;;;11.30;49.30;;;;;;5035581;28;20029;-77
2021/04/27 08:54:04;;;;;;;7.43;1.90;;;11.30;49.00;;;;;;5035402;28;20031;-79
2021/04/27 08:56:30;;;;;;;6.97;2.03;;;11.40;48.80;;;;;;5053344;28;20031;-81
2021/04/27 08:58:55;;;;;;;4.03;1.60;;;11.50;48.60;;;;;;5035638;28;20030;-77
2021/04/27 09:01:21;;;;;;;5.87;1.87;;;11.60;48.40;;;;;;5035408;28;20029;-78
2021/04/27 09:03:51;;;;;;;3.60;1.80;;;11.70;48.20;;;;;;5053220;28;20033;-80
2021/04/27 09:06:19;;;;;;;3.87;1.60;;;11.80;48.10;;;;;;5053279;28;20044;-72
2021/04/27 09:08:46;;;;;;;6.78;2.15;;;11.80;47.70;;;;;;5035293;28;20032;-72
2021/04/27 09:11:32;;;;;;;5.43;2.38;;;11.90;47.60;;;;;;5053149;28;20020;-72
2021/04/27 09:14:10;;;;;;;6.28;2.35;;;12.00;47.60;;;;;;5053041;28;20041;-71
2021/04/27 09:16:36;;;;;;;6.72;2.00;;;12.10;47.40;;;;;;5052987;28;20087;-72
2021/04/27 09:19:03;;;;;;;5.22;2.17;;;12.10;47.20;;;;;;5018798;28;20040;-72
2021/04/27 09:21:38;;;;;;;6.32;2.20;;;12.20;46.90;;;;;;5051516;28;20029;-71
2021/04/27 09:24:14;;;;;;;4.88;2.03;;;12.30;46.70;;;;;;5052867;28;20033;-71
2021/04/27 09:26:42;;;;;;;9.25;1.98;;;12.40;46.70;;;;;;5051979;28;20033;-71
2021/04/27 09:29:09;;;;;;;4.85;1.90;;;12.40;47.40;;;;;;5052981;28;20065;-72
2021/04/27 09:31:41;;;;;;;6.20;1.67;;;12.50;46.80;;;;;;5035310;28;20029;-71
2021/04/27 09:34:26;;;;;;;4.68;2.00;;;12.60;46.50;;;;;;5052948;28;20033;-71
2021/04/27 09:36:55;;;;;;;4.22;1.75;;;12.70;46.30;;;;;;5035098;28;20044;-71
2021/04/27 09:39:51;;;;;;;4.47;1.75;;;12.80;46.00;;;;;;5035156;28;20052;-73
2021/04/27 09:42:22;;;;;;;3.20;1.58;;;12.90;45.60;;;;;;5034992;28;20025;-75
2021/04/27 09:44:52;;;;;;;3.75;1.63;;;13.00;45.30;;;;;;5052759;28;20061;-73
2021/04/27 09:47:27;;;;;;;3.92;1.27;;;13.10;44.90;;;;;;5052509;28;20029;-74
2021/04/27 09:50:08;;;;;;;3.38;1.42;;;13.20;44.50;;;;;;5052805;28;20130;-72
2021/04/27 09:52:46;;;;;;;2.83;1.20;;;13.20;44.30;;;;;;5052780;28;20060;-73
2021/04/27 09:55:13;;;;;;;4.45;1.67;;;13.30;44.10;;;;;;5052710;28;20083;-72
2021/04/27 09:57:51;;;;;;;3.80;1.30;;;13.30;43.90;;;;;;5034615;28;20031;-73
2021/04/27 10:00:38;;;;;;;3.75;1.48;;;13.40;43.50;;;;;;5034842;28;20092;-72
2021/04/27 10:03:06;;;;;;;3.05;1.20;;;13.50;43.00;;;;;;5052615;28;20025;-73
2021/04/27 10:05:33;;;;;;;8.38;1.70;;;13.60;42.90;;;;;;5052661;28;20032;-72
2021/04/27 10:08:00;;;;;;;4.68;1.30;;;13.60;42.20;;;;;;5022066;28;20025;-71
2021/04/27 10:10:29;;;;;;;5.47;1.67;;;13.70;42.10;;;;;;5055196;28;20029;-73
2021/04/27 10:12:58;;;;;;;6.75;1.40;;;13.70;41.90;;;;;;5037978;28;20037;-75
2021/04/27 10:15:23;;;;;;;2.63;1.45;;;13.90;41.40;;;;;;5056183;28;20059;-73
2021/04/27 10:17:50;;;;;;;4.55;1.60;;;14.00;41.10;;;;;;5038450;28;20025;-73
2021/04/27 10:20:16;;;;;;;4.47;1.35;;;14.10;40.70;;;;;;5056412;28;20028;-73
2021/04/27 10:22:45;;;;;;;3.20;1.40;;;14.30;40.40;;;;;;5021789;28;20021;-75
2021/04/27 10:25:13;;;;;;;5.18;1.40;;;14.50;40.00;;;;;;5038141;28;20048;-75
2021/04/27 10:27:39;;;;;;;4.40;1.33;;;14.70;39.60;;;;;;5056015;28;20096;-73
2021/04/27 10:30:36;;;;;;;5.30;1.05;;;14.90;39.40;;;;;;5038761;28;20057;-73
2021/04/27 10:33:01;;;;;;;3.60;0.90;;;15.10;39.00;;;;;;5038037;28;20116;-71
2021/04/27 10:35:32;;;;;;;3.50;0.90;;;15.30;39.00;;;;;;5038146;28;20562;-73
2021/04/27 10:38:01;;;;;;;3.95;1.13;;;15.50;38.80;;;;;;5055885;28;20021;-74
2021/04/27 10:40:54;;;;;;;5.53;1.40;;;15.70;38.60;;;;;;5055792;28;20092;-75
2021/04/27 10:43:26;;;;;;;1.83;1.00;;;15.90;38.00;;;;;;5055880;28;20033;-73
2021/04/27 10:45:52;;;;;;;3.85;1.25;;;16.20;38.10;;;;;;5055635;28;20068;-77
2021/04/27 10:48:29;;;;;;;3.65;1.77;;;16.40;38.00;;;;;;5021604;28;20037;-77
2021/04/27 10:50:55;;;;;;;4.20;1.30;;;16.60;37.60;;;;;;5037965;28;20029;-76
2021/04/27 10:53:36;;;;;;;3.83;1.58;;;16.80;37.40;;;;;;5055568;28;20041;-73
2021/04/27 10:56:03;;;;;;;3.33;1.10;;;17.00;36.90;;;;;;5055530;28;20051;-71
2021/04/27 10:58:41;;;;;;;3.20;1.13;;;17.20;36.90;;;;;;5055521;28;20033;-74
2021/04/27 11:01:28;;;;;;;6.78;1.02;;;17.50;36.60;;;;;;5037571;28;20025;-71
2021/04/27 11:03:56;;;;;;;3.45;1.20;;;17.70;35.90;;;;;;5054026;28;20124;-70
2021/04/27 11:06:22;;;;;;;4.50;1.15;;;17.90;36.10;;;;;;5055325;28;20037;-71
2021/04/27 11:08:53;;;;;;;3.38;1.23;;;18.20;36.00;;;;;;5037228;28;20017;-71
2021/04/27 11:11:23;;;;;;;3.78;1.20;;;18.40;35.40;;;;;;5037277;28;20033;-72
2021/04/27 11:13:50;;;;;;;3.63;1.35;;;18.60;35.10;;;;;;5037275;28;20497;-71
2021/04/27 11:16:28;;;;;;;3.45;1.20;;;18.90;34.60;;;;;;5020978;28;20035;-73
2021/04/27 11:19:22;;;;;;;3.67;1.20;;;19.10;34.00;;;;;;5053614;28;20029;-73
2021/04/27 11:21:51;;;;;;;4.28;0.90;;;19.40;33.50;;;;;;5037024;28;20491;-72
2021/04/27 11:24:39;;;;;;;3.45;1.13;;;19.60;33.60;;;;;;5053721;28;20025;-72
2021/04/27 11:27:18;;;;;;;3.50;1.13;;;19.90;33.30;;;;;;5037005;28;20037;-74
2021/04/27 11:30:03;;;;;;;3.58;1.10;;;20.20;33.30;;;;;;5054705;28;20040;-72
2021/04/27 11:32:31;;;;;;;7.00;1.27;;;20.40;32.60;;;;;;5054774;28;20025;-72
2021/04/27 11:35:10;;;;;;;3.92;1.30;;;20.70;32.50;;;;;;5036774;28;20025;-73
2021/04/27 11:37:37;;;;;;;6.63;1.33;;;20.90;32.00;;;;;;5036628;28;20021;-71
2021/04/27 11:40:32;;;;;;;5.47;1.40;;;21.20;32.00;;;;;;5036617;28;20056;-72
2021/04/27 11:43:04;;;;;;;3.05;1.10;;;21.50;31.20;;;;;;5036633;28;20017;-72
2021/04/27 11:45:34;;;;;;;4.78;1.40;;;21.80;31.30;;;;;;5054088;28;20029;-71
2021/04/27 11:48:02;;;;;;;2.60;1.35;;;22.00;30.80;;;;;;5036492;28;20048;-71
2021/04/27 11:50:30;;;;;;;2.45;1.10;;;22.30;30.70;;;;;;5036689;28;20021;-71
2021/04/27 11:53:08;;;;;;;8.13;1.80;;;22.50;30.60;;;;;;5053981;28;20110;-71
2021/04/27 11:55:50;;;;;;;3.88;1.40;;;22.70;30.00;;;;;;5054167;28;20189;-72
2021/04/27 11:58:23;;;;;;;2.85;1.20;;;22.90;29.70;;;;;;5041204;28;20040;-73
2021/04/27 12:00:52;;;;;;;3.97;1.40;;;23.10;29.30;;;;;;5074291;28;20170;-72
2021/04/27 12:03:26;;;;;;;3.25;1.38;;;23.30;29.20;;;;;;5055797;28;20294;-77
2021/04/27 12:05:53;;;;;;;6.20;1.30;;;23.50;28.80;;;;;;5074522;28;20039;-72
2021/04/27 12:08:24;;;;;;;4.53;1.23;;;23.80;28.80;;;;;;5056276;28;20082;-73
2021/04/27 12:11:17;;;;;;;2.17;1.20;;;23.90;28.50;;;;;;5074345;28;20531;-72
2021/04/27 12:14:20;;;;;;;3.78;1.58;;;24.10;28.00;;;;;;5055561;28;20368;-73
2021/04/27 12:16:48;;;;;;;2.72;1.00;;;24.30;28.10;;;;;;5052003;28;20032;-72
2021/04/27 12:19:27;;;;;;;2.83;1.33;;;24.60;28.20;;;;;;5056474;28;20028;-72
2021/04/27 12:22:02;;;;;;;2.50;1.10;;;24.80;27.60;;;;;;5056014;28;20021;-73
2021/04/27 12:24:30;;;;;;;4.43;1.25;;;24.90;27.40;;;;;;5039877;28;20392;-72
2021/04/27 12:27:01;;;;;;;3.30;1.17;;;25.00;27.20;;;;;;5073753;28;20024;-73
2021/04/27 12:29:28;;;;;;;2.72;1.23;;;25.20;27.10;;;;;;5055334;28;20411;-72
2021/04/27 12:31:55;;;;;;;2.70;1.35;;;25.30;27.00;;;;;;5073680;28;20403;-73
2021/04/27 12:34:21;;;;;;;4.13;1.20;;;25.40;26.90;;;;;;5055848;28;20021;-72
2021/04/27 12:36:50;;;;;;;2.08;0.95;;;25.50;26.60;;;;;;5039106;28;20027;-75
2021/04/27 12:39:22;;;;;;;4.32;1.00;;;25.70;26.50;;;;;;5055933;28;20364;-73
2021/04/27 12:41:48;;;;;;;2.67;1.00;;;25.90;26.40;;;;;;5073751;28;20108;-73
2021/04/27 12:44:29;;;;;;;4.10;1.30;;;26.00;26.90;;;;;;5055627;28;20021;-73
2021/04/27 12:46:56;;;;;;;3.67;1.23;;;26.20;26.00;;;;;;5055707;28;20472;-73
2021/04/27 12:49:55;;;;;;;2.63;1.30;;;26.30;26.30;;;;;;5073375;28;20028;-73
2021/04/27 12:52:21;;;;;;;2.47;1.08;;;26.50;25.80;;;;;;5055248;28;20103;-73
2021/04/27 12:55:06;;;;;;;3.47;0.82;;;26.60;26.00;;;;;;5073344;28;20424;-74
2021/04/27 12:57:33;;;;;;;4.07;1.20;;;26.80;25.60;;;;;;5073299;28;20357;-73
2021/04/27 13:00:07;;;;;;;4.97;1.20;;;26.90;25.70;;;;;;5073723;28;20029;-73